Time;durP1;ratioP1;P1;durP2;ratioP2;P2;SDS_P1;SDS_P2;PMS_P1;PMS_P2;Temp;Humidity;BMP_temperature;BMP_pressure;BME280_temperature;BME280_humidity;BME280_pressure;Samples;Min_cycle;Max_cycle;Signal;HPM_P1;HPM_P2
2022/01/17 00:00:09;;;;;;;34.17;17.17;;;2.30;99.90;;;;;;5029536;28;20033;-69
2022/01/17 00:02:34;;;;;;;31.55;17.33;;;2.30;99.90;;;;;;5030235;28;20025;-69
2022/01/17 00:05:00;;;;;;;34.05;17.58;;;2.40;99.90;;;;;;5029508;28;20405;-69
2022/01/17 00:07:29;;;;;;;32.60;17.52;;;2.40;99.90;;;;;;5029829;28;20040;-69
2022/01/17 00:09:55;;;;;;;33.63;16.90;;;2.40;99.90;;;;;;5028955;28;20033;-69
2022/01/17 00:12:21;;;;;;;33.08;17.55;;;2.40;99.90;;;;;;5030100;28;20034;-69
2022/01/17 00:14:47;;;;;;;34.72;18.25;;;2.40;99.90;;;;;;5029543;28;20064;-69
2022/01/17 00:19:43;;;;;;;30.77;16.95;;;2.40;99.90;;;;;;5030607;28;20037;-69
2022/01/17 00:22:11;;;;;;;32.97;17.63;;;2.30;99.90;;;;;;5030039;28;20030;-69
2022/01/17 00:24:37;;;;;;;29.42;17.27;;;2.40;99.90;;;;;;5025728;28;20666;-69
2022/01/17 00:27:03;;;;;;;31.13;18.52;;;2.30;99.90;;;;;;5029140;28;20132;-69
2022/01/17 00:29:29;;;;;;;33.00;17.88;;;2.30;99.90;;;;;;5029465;28;20389;-69
2022/01/17 00:31:55;;;;;;;36.47;18.52;;;2.30;99.90;;;;;;5029497;28;20187;-69
2022/01/17 00:34:22;;;;;;;31.63;17.73;;;2.30;99.90;;;;;;5029374;28;20552;-69
2022/01/17 00:36:47;;;;;;;38.08;19.80;;;2.30;99.90;;;;;;5029515;28;20366;-69
2022/01/17 00:39:13;;;;;;;38.30;18.73;;;2.30;99.90;;;;;;5028854;28;20032;-69
2022/01/17 00:41:39;;;;;;;34.22;19.40;;;2.30;99.90;;;;;;5029620;28;20099;-69
2022/01/17 00:44:05;;;;;;;30.15;17.27;;;2.30;99.90;;;;;;5029078;28;20500;-69
2022/01/17 00:46:32;;;;;;;33.17;18.10;;;2.30;99.90;;;;;;5029805;28;20029;-69
2022/01/17 00:48:58;;;;;;;34.33;17.55;;;2.30;99.90;;;;;;5028830;28;20029;-69
2022/01/17 00:51:23;;;;;;;34.70;18.33;;;2.20;99.90;;;;;;5032905;28;20477;-69
2022/01/17 00:53:49;;;;;;;35.92;18.08;;;2.30;99.90;;;;;;5032517;28;20033;-69
2022/01/17 00:56:15;;;;;;;35.55;18.35;;;2.30;99.90;;;;;;5031406;28;20364;-69
2022/01/17 00:58:41;;;;;;;34.47;17.83;;;2.30;99.90;;;;;;5026267;28;20026;-69
2022/01/17 01:01:08;;;;;;;33.95;17.25;;;2.30;99.90;;;;;;5032936;28;20083;-69
2022/01/17 01:03:34;;;;;;;30.73;17.48;;;2.30;99.90;;;;;;5033254;28;20052;-69
2022/01/17 01:05:59;;;;;;;36.65;17.95;;;2.30;99.90;;;;;;5032392;28;20030;-69
2022/01/17 01:08:25;;;;;;;34.33;18.67;;;2.20;99.90;;;;;;5032579;28;20171;-69
2022/01/17 01:10:50;;;;;;;32.13;17.15;;;2.20;99.90;;;;;;5032495;28;20026;-69
2022/01/17 01:13:22;;;;;;;33.60;18.02;;;2.20;99.90;;;;;;5032861;28;20033;-69
2022/01/17 01:16:09;;;;;;;37.10;18.35;;;2.20;99.90;;;;;;5032200;28;20030;-69
2022/01/17 01:18:49;;;;;;;34.08;17.58;;;2.20;99.90;;;;;;5033347;28;20029;-69
2022/01/17 01:29:28;;;;;;;37.08;18.52;;;2.20;99.90;;;;;;5025535;28;20072;-69
2022/01/17 01:32:00;;;;;;;37.92;19.80;;;2.20;99.90;;;;;;5032472;28;20444;-69
2022/01/17 01:34:35;;;;;;;45.58;29.55;;;2.20;99.90;;;;;;5031912;28;20029;-69
2022/01/17 01:37:02;;;;;;;33.95;19.02;;;2.20;99.90;;;;;;5032424;28;20029;-69
2022/01/17 01:39:28;;;;;;;38.08;18.65;;;2.20;99.90;;;;;;5032246;28;20397;-69
2022/01/17 01:41:54;;;;;;;39.97;20.27;;;2.20;99.90;;;;;;5032221;28;20025;-69
2022/01/17 01:44:23;;;;;;;37.50;19.85;;;2.20;99.90;;;;;;5028442;28;20531;-69
2022/01/17 01:46:50;;;;;;;37.50;18.88;;;2.20;99.90;;;;;;5032459;28;20591;-69
2022/01/17 01:49:17;;;;;;;36.85;19.48;;;2.20;99.90;;;;;;5031289;28;20034;-69
2022/01/17 01:51:43;;;;;;;41.13;20.23;;;2.20;99.90;;;;;;5032314;28;20494;-69
2022/01/17 01:54:10;;;;;;;39.20;20.52;;;2.20;99.90;;;;;;5031472;28;20030;-69
2022/01/17 01:56:43;;;;;;;38.13;20.20;;;2.20;99.90;;;;;;5032194;28;20048;-69
2022/01/17 01:59:09;;;;;;;41.70;21.30;;;2.10;99.90;;;;;;5031288;28;20512;-69
2022/01/17 02:01:35;;;;;;;41.03;20.88;;;2.10;99.90;;;;;;5031154;28;20041;-69
2022/01/17 02:04:01;;;;;;;38.65;20.23;;;2.10;99.90;;;;;;5030792;28;20052;-69
2022/01/17 02:06:27;;;;;;;40.13;19.52;;;2.10;99.90;;;;;;5029354;28;20084;-69
2022/01/17 02:08:53;;;;;;;37.28;19.42;;;2.10;99.90;;;;;;5028776;28;20068;-69
2022/01/17 02:11:18;;;;;;;41.78;19.48;;;2.00;99.90;;;;;;5031388;28;20116;-69
2022/01/17 02:13:46;;;;;;;33.90;19.02;;;2.00;99.90;;;;;;5031255;28;20032;-69
2022/01/17 02:16:14;;;;;;;42.95;21.30;;;2.00;99.90;;;;;;5031576;28;20056;-69
2022/01/17 02:18:44;;;;;;;37.42;19.25;;;2.00;99.90;;;;;;5030143;28;20117;-69
2022/01/17 02:21:33;;;;;;;38.67;19.95;;;2.00;99.90;;;;;;5031476;28;20112;-69
2022/01/17 02:23:59;;;;;;;39.08;19.92;;;2.00;99.90;;;;;;5030652;28;20481;-69
2022/01/17 02:26:26;;;;;;;37.10;19.02;;;2.00;99.90;;;;;;5035483;28;20025;-69
2022/01/17 02:28:55;;;;;;;39.60;20.23;;;1.90;99.90;;;;;;5033968;28;20088;-69
2022/01/17 02:31:23;;;;;;;39.20;19.55;;;1.90;99.90;;;;;;5031291;28;20057;-69
2022/01/17 02:33:53;;;;;;;36.05;18.92;;;1.90;99.90;;;;;;5030429;28;20031;-69
2022/01/17 02:36:19;;;;;;;38.42;19.13;;;1.90;99.90;;;;;;5031551;28;20108;-69
2022/01/17 02:38:45;;;;;;;36.97;19.77;;;1.90;99.90;;;;;;5029598;28;20022;-69
2022/01/17 02:41:11;;;;;;;38.38;18.92;;;1.80;99.90;;;;;;5021612;28;20474;-69
2022/01/17 02:43:39;;;;;;;44.17;20.85;;;1.80;99.90;;;;;;5030288;28;20026;-69
2022/01/17 02:48:34;;;;;;;44.70;20.98;;;1.80;99.90;;;;;;5013674;28;20030;-69
2022/01/17 02:51:01;;;;;;;39.40;19.75;;;1.80;99.90;;;;;;5030593;28;20466;-69
2022/01/17 02:53:27;;;;;;;42.40;20.60;;;1.80;99.90;;;;;;5030365;28;20052;-69
2022/01/17 02:55:58;;;;;;;41.88;20.77;;;1.80;99.90;;;;;;5030671;28;20103;-69
2022/01/17 02:58:27;;;;;;;41.87;20.17;;;1.80;99.90;;;;;;5030935;28;20497;-69
2022/01/17 03:00:56;;;;;;;41.58;19.75;;;1.80;99.90;;;;;;5030737;28;20563;-69
2022/01/17 03:03:28;;;;;;;44.50;19.48;;;1.80;99.90;;;;;;5030126;28;20033;-69
2022/01/17 03:05:55;;;;;;;37.80;19.15;;;1.80;99.90;;;;;;5030884;28;20477;-69
2022/01/17 03:08:27;;;;;;;38.60;18.70;;;1.80;99.90;;;;;;5029028;28;20053;-69
2022/01/17 03:10:55;;;;;;;41.15;20.00;;;1.80;99.90;;;;;;5030754;28;20024;-69
2022/01/17 03:13:30;;;;;;;37.70;18.38;;;1.80;99.90;;;;;;5029024;28;20033;-69
2022/01/17 03:15:58;;;;;;;45.03;20.33;;;1.80;99.90;;;;;;5029979;28;20041;-69
2022/01/17 03:18:30;;;;;;;41.53;20.65;;;1.80;99.90;;;;;;5029457;28;20025;-69
2022/01/17 03:20:57;;;;;;;40.28;19.50;;;1.80;99.90;;;;;;5029998;28;20397;-68
2022/01/17 03:23:23;;;;;;;38.45;19.15;;;1.80;99.90;;;;;;5029991;28;20043;-69
2022/01/17 03:25:49;;;;;;;37.42;19.10;;;1.80;99.90;;;;;;5045509;28;20028;-69
2022/01/17 03:28:16;;;;;;;40.45;19.85;;;1.80;99.90;;;;;;5030112;28;20029;-69
2022/01/17 03:30:42;;;;;;;47.30;21.75;;;1.80;99.90;;;;;;5030140;28;20502;-69
2022/01/17 03:33:10;;;;;;;41.67;19.40;;;1.80;99.90;;;;;;5029845;28;20040;-69
2022/01/17 03:35:38;;;;;;;42.83;19.52;;;1.80;99.90;;;;;;5030230;28;20117;-69
2022/01/17 03:38:05;;;;;;;38.15;18.90;;;1.80;99.90;;;;;;5028887;28;20676;-69
2022/01/17 03:40:32;;;;;;;41.75;19.42;;;1.80;99.90;;;;;;5029804;28;20116;-69
2022/01/17 03:42:57;;;;;;;41.45;19.77;;;1.80;99.90;;;;;;5021121;28;20080;-69
2022/01/17 03:45:23;;;;;;;44.60;19.75;;;1.80;99.90;;;;;;5028978;28;20033;-69
2022/01/17 03:47:49;;;;;;;41.45;19.40;;;1.90;99.90;;;;;;5029154;28;20022;-69
2022/01/17 03:50:17;;;;;;;46.13;20.23;;;1.80;99.90;;;;;;5029703;28;20030;-68
2022/01/17 03:52:43;;;;;;;41.00;20.35;;;1.80;99.90;;;;;;5029745;28;20029;-69
2022/01/17 03:55:12;;;;;;;41.40;19.23;;;1.80;99.90;;;;;;5029481;28;20539;-69
2022/01/17 03:57:38;;;;;;;38.03;18.77;;;1.90;99.90;;;;;;5029035;28;20021;-69
2022/01/17 04:00:06;;;;;;;46.35;20.70;;;1.90;99.90;;;;;;5029867;28;20037;-69
2022/01/17 04:02:32;;;;;;;40.42;19.48;;;1.80;99.90;;;;;;5029492;28;20030;-69
2022/01/17 04:04:57;;;;;;;40.28;20.00;;;1.80;99.90;;;;;;5029986;28;20021;-69
2022/01/17 04:07:23;;;;;;;36.97;18.30;;;1.80;99.90;;;;;;5028651;28;20025;-69
2022/01/17 04:09:49;;;;;;;40.45;18.85;;;1.80;99.90;;;;;;5029396;28;20499;-69
2022/01/17 04:12:14;;;;;;;40.10;19.73;;;1.80;99.90;;;;;;5029460;28;20026;-69
2022/01/17 04:14:40;;;;;;;41.60;18.88;;;1.80;99.90;;;;;;5029724;28;20037;-69
2022/01/17 04:17:06;;;;;;;39.80;19.95;;;1.90;99.90;;;;;;5028429;28;20075;-69
2022/01/17 04:19:32;;;;;;;38.78;18.83;;;1.90;99.90;;;;;;5029753;28;20036;-69
2022/01/17 04:21:59;;;;;;;35.97;18.08;;;1.90;99.90;;;;;;5019432;28;20026;-69
2022/01/17 04:24:24;;;;;;;39.38;19.30;;;1.90;99.90;;;;;;5032340;28;20137;-69
2022/01/17 04:26:50;;;;;;;37.80;18.30;;;1.90;99.90;;;;;;5037138;28;20124;-69
2022/01/17 04:29:16;;;;;;;39.30;18.73;;;1.90;99.90;;;;;;5030911;28;20032;-69
2022/01/17 04:31:41;;;;;;;36.25;17.65;;;1.90;99.90;;;;;;5031722;28;20129;-69
2022/01/17 04:34:07;;;;;;;41.55;17.83;;;1.90;99.90;;;;;;5033725;28;20018;-69
2022/01/17 04:36:33;;;;;;;38.17;18.23;;;1.90;99.90;;;;;;5032325;28;20071;-69
2022/01/17 04:38:58;;;;;;;37.97;18.13;;;1.90;99.90;;;;;;5032462;28;20034;-69
2022/01/17 04:41:35;;;;;;;36.10;18.20;;;1.90;99.90;;;;;;5032716;28;20032;-69
2022/01/17 04:45:07;;;;;;;35.45;17.65;;;1.90;99.90;;;;;;5033444;28;20022;-69
2022/01/17 04:46:47;;;;;;;40.33;17.85;;;1.90;99.90;;;;;;5033851;28;20430;-69
2022/01/17 04:49:13;;;;;;;39.45;18.35;;;1.90;99.90;;;;;;5031945;28;20100;-69
2022/01/17 04:51:39;;;;;;;36.00;18.10;;;1.90;99.90;;;;;;5032783;28;20116;-69
2022/01/17 04:56:45;;;;;;;40.75;19.63;;;1.90;99.90;;;;;;5034086;28;20021;-68
2022/01/17 04:59:10;;;;;;;39.25;18.73;;;1.90;99.90;;;;;;5032177;28;20056;-69
2022/01/17 05:01:36;;;;;;;41.38;18.33;;;1.90;99.90;;;;;;5032459;28;20037;-69
2022/01/17 05:04:02;;;;;;;38.75;17.77;;;1.80;99.90;;;;;;5032874;28;20021;-69
2022/01/17 05:06:27;;;;;;;37.20;18.90;;;1.80;99.90;;;;;;5032621;28;20052;-69
2022/01/17 05:08:53;;;;;;;34.03;16.92;;;1.80;99.90;;;;;;5031842;28;20033;-70
2022/01/17 05:11:18;;;;;;;39.10;18.65;;;1.80;99.90;;;;;;5032401;28;20029;-69
2022/01/17 05:13:48;;;;;;;38.00;17.98;;;1.80;99.90;;;;;;5033276;28;20022;-68
2022/01/17 05:16:15;;;;;;;37.17;18.02;;;1.80;99.90;;;;;;5032021;28;20030;-69
2022/01/17 05:21:07;;;;;;;37.47;18.67;;;1.80;99.90;;;;;;5033394;28;20036;-69
2022/01/17 05:23:32;;;;;;;39.00;18.35;;;1.80;99.90;;;;;;5032575;28;20017;-69
2022/01/17 05:25:58;;;;;;;35.80;17.08;;;1.80;99.90;;;;;;5035204;28;20622;-69
2022/01/17 05:28:25;;;;;;;39.65;18.17;;;1.80;99.90;;;;;;5031736;28;20492;-69
2022/01/17 05:30:51;;;;;;;38.35;18.40;;;1.80;99.90;;;;;;5031761;28;20393;-69
2022/01/17 05:33:16;;;;;;;34.05;16.88;;;1.70;99.90;;;;;;5032373;28;20029;-69
2022/01/17 05:35:42;;;;;;;34.17;17.90;;;1.70;99.90;;;;;;5031483;28;20061;-69
2022/01/17 05:38:08;;;;;;;37.42;16.67;;;1.70;99.90;;;;;;5030580;28;20022;-69
2022/01/17 05:40:33;;;;;;;35.42;17.05;;;1.80;99.90;;;;;;5032201;28;20029;-69
2022/01/17 05:42:59;;;;;;;34.88;17.02;;;1.70;99.90;;;;;;5059942;23;20047;-66
2022/01/17 05:45:25;;;;;;;32.78;16.65;;;1.70;99.90;;;;;;5025728;28;20101;-65
2022/01/17 05:47:51;;;;;;;33.88;16.02;;;1.70;99.90;;;;;;5011729;28;20050;-66
2022/01/17 05:50:16;;;;;;;32.42;16.25;;;1.80;99.90;;;;;;5013151;28;20385;-65
2022/01/17 05:52:44;;;;;;;36.70;16.27;;;1.80;99.90;;;;;;5013881;28;20545;-66
2022/01/17 05:55:12;;;;;;;29.55;14.82;;;1.80;99.90;;;;;;5011979;28;20134;-65
2022/01/17 05:57:38;;;;;;;31.17;15.18;;;1.80;99.90;;;;;;5011654;28;20056;-66
2022/01/17 06:00:10;;;;;;;32.13;15.10;;;1.80;99.90;;;;;;5011670;28;20061;-64
2022/01/17 06:02:36;;;;;;;27.67;14.73;;;1.80;99.90;;;;;;4992933;28;20050;-65
2022/01/17 06:05:02;;;;;;;33.88;14.85;;;1.80;99.90;;;;;;5010012;28;20103;-66
2022/01/17 06:07:28;;;;;;;30.52;15.18;;;1.80;99.90;;;;;;5011419;28;20038;-67
2022/01/17 06:09:53;;;;;;;30.08;15.15;;;1.80;99.90;;;;;;5011760;28;20066;-66
2022/01/17 06:12:19;;;;;;;25.15;13.65;;;1.80;99.90;;;;;;5011926;28;20026;-66
2022/01/17 06:14:45;;;;;;;29.65;14.70;;;1.80;99.90;;;;;;5011298;28;20144;-66
2022/01/17 06:17:11;;;;;;;25.73;12.40;;;1.80;99.90;;;;;;5010424;28;20041;-66
2022/01/17 06:19:36;;;;;;;28.73;14.73;;;1.80;99.90;;;;;;5010976;28;20041;-66
2022/01/17 06:22:04;;;;;;;31.15;14.40;;;1.80;99.90;;;;;;5011821;28;20022;-66
2022/01/17 06:24:30;;;;;;;32.65;16.10;;;1.80;99.90;;;;;;5010879;28;20030;-64
2022/01/17 06:26:58;;;;;;;30.77;14.38;;;1.90;99.90;;;;;;5010452;28;20030;-66
2022/01/17 06:29:24;;;;;;;27.70;14.13;;;1.80;99.90;;;;;;5012375;28;20025;-65
2022/01/17 06:31:50;;;;;;;30.83;15.00;;;1.80;99.90;;;;;;5011485;28;20026;-65
2022/01/17 06:34:16;;;;;;;30.02;14.73;;;1.80;99.90;;;;;;5011131;28;20394;-66
2022/01/17 06:36:42;;;;;;;25.33;13.38;;;1.80;99.90;;;;;;5011487;28;20407;-65
2022/01/17 06:39:10;;;;;;;27.50;15.00;;;1.90;99.90;;;;;;5010107;28;20462;-66
2022/01/17 06:41:36;;;;;;;28.15;14.07;;;1.90;99.90;;;;;;5011666;28;20126;-66
2022/01/17 06:44:02;;;;;;;29.27;14.52;;;1.90;99.90;;;;;;5011661;28;20029;-66
2022/01/17 06:46:29;;;;;;;24.33;12.98;;;1.90;99.90;;;;;;5011386;28;20120;-64
2022/01/17 06:48:55;;;;;;;25.35;14.00;;;1.90;99.90;;;;;;5010753;28;20026;-66
2022/01/17 06:51:20;;;;;;;26.23;14.55;;;1.90;99.90;;;;;;5010949;28;20026;-67
2022/01/17 06:53:48;;;;;;;24.13;13.38;;;1.90;99.90;;;;;;5010027;28;20024;-65
2022/01/17 06:56:14;;;;;;;27.00;14.30;;;1.90;99.90;;;;;;5011207;28;20076;-67
2022/01/17 06:58:42;;;;;;;28.50;13.80;;;1.90;99.90;;;;;;5009800;28;20106;-65
2022/01/17 07:01:09;;;;;;;30.38;15.68;;;1.90;99.90;;;;;;5018421;28;20120;-67
2022/01/17 07:03:34;;;;;;;30.67;15.27;;;1.90;99.90;;;;;;5011323;28;20034;-66
2022/01/17 07:06:00;;;;;;;25.73;14.63;;;1.90;99.90;;;;;;5010649;28;20020;-68
2022/01/17 07:08:26;;;;;;;30.00;14.75;;;1.90;99.90;;;;;;5009091;28;20048;-67
2022/01/17 07:10:52;;;;;;;23.42;13.05;;;1.90;99.90;;;;;;5009184;28;20022;-66
2022/01/17 07:13:17;;;;;;;31.23;15.98;;;1.90;99.90;;;;;;5002647;28;20508;-66
2022/01/17 07:15:43;;;;;;;27.63;13.68;;;1.90;99.90;;;;;;5011226;28;20538;-65
2022/01/17 07:18:11;;;;;;;26.48;13.75;;;1.90;99.90;;;;;;5009672;28;20022;-65
2022/01/17 07:20:38;;;;;;;25.17;13.65;;;1.90;99.90;;;;;;5010330;28;20084;-65
2022/01/17 07:23:03;;;;;;;26.83;14.48;;;1.90;99.90;;;;;;5009429;28;20486;-66
2022/01/17 07:25:29;;;;;;;28.42;14.65;;;1.90;99.90;;;;;;5004206;28;20052;-67
2022/01/17 07:27:56;;;;;;;25.88;13.52;;;1.90;99.90;;;;;;5009063;28;20038;-65
2022/01/17 07:30:23;;;;;;;29.50;14.18;;;1.90;99.90;;;;;;4991465;28;20640;-65
2022/01/17 07:32:48;;;;;;;26.48;14.18;;;2.00;99.90;;;;;;4993918;28;20030;-66
2022/01/17 07:35:14;;;;;;;27.30;13.98;;;2.00;99.90;;;;;;5010748;28;20028;-66
2022/01/17 07:37:40;;;;;;;30.38;13.40;;;2.00;99.90;;;;;;5009430;28;20096;-67
2022/01/17 07:40:07;;;;;;;27.38;13.45;;;2.00;99.90;;;;;;5024216;28;20556;-67
2022/01/17 07:42:33;;;;;;;29.08;15.07;;;2.00;99.90;;;;;;5029426;28;20409;-67
2022/01/17 07:45:08;;;;;;;27.90;14.27;;;2.00;99.90;;;;;;5010716;28;20065;-66
2022/01/17 07:50:14;;;;;;;28.75;13.93;;;2.00;99.90;;;;;;5011308;28;20030;-67
2022/01/17 07:52:40;;;;;;;29.92;14.20;;;2.10;99.90;;;;;;5009981;28;20144;-64
2022/01/17 07:55:06;;;;;;;24.92;13.52;;;2.10;99.90;;;;;;5010113;28;20049;-65
2022/01/17 07:57:32;;;;;;;26.48;13.77;;;2.10;99.90;;;;;;5009263;28;20026;-66
2022/01/17 07:59:58;;;;;;;27.40;14.27;;;2.10;99.90;;;;;;5013566;28;20030;-66
2022/01/17 08:02:23;;;;;;;27.40;14.68;;;2.10;99.90;;;;;;5016725;28;20021;-65
2022/01/17 08:04:49;;;;;;;27.52;14.82;;;2.10;99.90;;;;;;5018215;28;20096;-67
2022/01/17 08:07:15;;;;;;;26.95;13.80;;;2.10;99.90;;;;;;5015680;28;20032;-66
2022/01/17 08:09:41;;;;;;;27.00;14.82;;;2.20;99.90;;;;;;5016613;28;20114;-65
2022/01/17 08:12:11;;;;;;;22.77;13.38;;;2.10;99.90;;;;;;5017606;28;20029;-66
2022/01/17 08:14:37;;;;;;;29.70;14.25;;;2.20;99.90;;;;;;5016959;28;20029;-63
2022/01/17 08:17:03;;;;;;;25.27;13.57;;;2.20;99.90;;;;;;5015503;28;20045;-65
2022/01/17 08:19:29;;;;;;;27.80;15.18;;;2.20;99.90;;;;;;5015568;28;20046;-66
2022/01/17 08:21:56;;;;;;;24.48;13.63;;;2.20;99.90;;;;;;5015883;28;20030;-65
2022/01/17 08:24:22;;;;;;;24.67;12.82;;;2.20;99.90;;;;;;5016032;28;20172;-65
2022/01/17 08:26:50;;;;;;;27.17;13.60;;;2.20;99.90;;;;;;5016279;28;20082;-66
2022/01/17 08:29:16;;;;;;;26.23;14.15;;;2.20;99.90;;;;;;5015305;28;20037;-66
2022/01/17 08:31:47;;;;;;;25.27;13.07;;;2.20;99.90;;;;;;5016304;28;20073;-66
2022/01/17 08:34:14;;;;;;;23.70;13.02;;;2.20;99.90;;;;;;5016441;28;20018;-64
2022/01/17 08:36:39;;;;;;;25.63;13.68;;;2.20;99.90;;;;;;5016596;28;20390;-65
2022/01/17 08:39:07;;;;;;;23.90;13.13;;;2.20;99.90;;;;;;5015275;28;20025;-65
2022/01/17 08:41:33;;;;;;;24.50;13.82;;;2.20;99.90;;;;;;5016481;28;20141;-66
2022/01/17 08:43:59;;;;;;;22.35;13.07;;;2.20;99.90;;;;;;5016308;28;20038;-64
2022/01/17 08:46:25;;;;;;;23.80;13.48;;;2.20;99.90;;;;;;5016236;28;20250;-65
2022/01/17 08:48:53;;;;;;;25.08;14.23;;;2.30;99.90;;;;;;5027684;28;20440;-66
2022/01/17 08:51:18;;;;;;;26.42;14.70;;;2.30;99.90;;;;;;5022187;28;20025;-67
2022/01/17 08:53:45;;;;;;;23.63;13.15;;;2.30;99.90;;;;;;5015639;28;20399;-65
2022/01/17 08:56:10;;;;;;;26.30;14.30;;;2.30;99.90;;;;;;5016527;28;20502;-64
2022/01/17 08:58:36;;;;;;;25.48;14.30;;;2.30;99.90;;;;;;5015029;28;20033;-65
2022/01/17 09:01:02;;;;;;;26.33;15.18;;;2.30;99.90;;;;;;5016534;28;20028;-65
2022/01/17 09:03:28;;;;;;;25.45;13.95;;;2.40;99.90;;;;;;5016313;28;20111;-66
2022/01/17 09:05:54;;;;;;;24.02;13.20;;;2.40;99.90;;;;;;5015759;28;20030;-64
2022/01/17 09:08:20;;;;;;;29.20;18.38;;;2.40;99.90;;;;;;5015628;28;20029;-64
2022/01/17 09:10:47;;;;;;;23.23;13.60;;;2.40;99.90;;;;;;5015402;28;20052;-64
2022/01/17 09:13:12;;;;;;;25.27;16.25;;;2.50;99.90;;;;;;5012538;28;20029;-63
2022/01/17 09:15:38;;;;;;;22.88;13.18;;;2.50;99.90;;;;;;5012937;28;20030;-65
2022/01/17 09:18:06;;;;;;;25.63;13.63;;;2.50;99.90;;;;;;5011688;28;20394;-65
2022/01/17 09:20:34;;;;;;;25.88;13.85;;;2.60;99.90;;;;;;5012986;28;20068;-65
2022/01/17 09:23:02;;;;;;;23.98;13.63;;;2.60;99.90;;;;;;5012547;28;20465;-64
2022/01/17 09:25:28;;;;;;;22.40;13.68;;;2.60;99.90;;;;;;5012964;28;20133;-64
2022/01/17 09:27:53;;;;;;;21.58;13.57;;;2.60;99.90;;;;;;5011224;28;20121;-66
2022/01/17 09:30:19;;;;;;;25.00;13.15;;;2.60;99.90;;;;;;5012921;28;20030;-67
2022/01/17 09:32:46;;;;;;;25.13;12.95;;;2.70;99.90;;;;;;5012272;28;20029;-64
2022/01/17 09:35:12;;;;;;;23.98;13.00;;;2.70;99.90;;;;;;5012405;28;20084;-65
2022/01/17 09:37:39;;;;;;;23.30;12.75;;;2.70;99.90;;;;;;5011648;28;20022;-66
2022/01/17 09:40:06;;;;;;;23.38;13.20;;;2.70;99.90;;;;;;5012844;28;20113;-64
2022/01/17 09:42:36;;;;;;;23.60;13.68;;;2.70;99.90;;;;;;5012822;28;20041;-66
2022/01/17 09:45:09;;;;;;;23.73;13.13;;;2.80;99.90;;;;;;5012173;28;20041;-65
2022/01/17 09:47:37;;;;;;;23.50;12.55;;;2.80;99.90;;;;;;5011948;28;20453;-64
2022/01/17 09:50:08;;;;;;;23.13;13.52;;;2.70;99.90;;;;;;5013305;28;20358;-64
2022/01/17 09:52:35;;;;;;;24.85;12.75;;;2.70;99.90;;;;;;5006174;28;20036;-65
2022/01/17 09:55:12;;;;;;;23.08;13.02;;;2.70;99.90;;;;;;5011923;28;20025;-64
2022/01/17 09:57:53;;;;;;;22.90;12.93;;;2.80;99.90;;;;;;5003617;28;20026;-68
2022/01/17 10:00:26;;;;;;;24.98;13.02;;;2.70;99.90;;;;;;5011193;28;20029;-64
2022/01/17 10:02:53;;;;;;;22.73;12.48;;;2.80;99.90;;;;;;5012218;28;20421;-65
2022/01/17 10:05:20;;;;;;;22.75;12.68;;;2.80;99.90;;;;;;5010620;28;20073;-65
2022/01/17 10:07:54;;;;;;;23.35;12.27;;;2.80;99.90;;;;;;5010761;28;20095;-65
2022/01/17 10:11:00;;;;;;;23.42;13.35;;;2.80;99.90;;;;;;5010852;28;20029;-64
2022/01/17 10:13:39;;;;;;;20.55;12.25;;;2.80;99.90;;;;;;4993057;28;20085;-64
2022/01/17 10:16:10;;;;;;;22.05;12.75;;;2.80;99.90;;;;;;5008841;28;20029;-65
2022/01/17 10:18:58;;;;;;;22.60;12.18;;;2.80;99.90;;;;;;5010822;28;20030;-66
2022/01/17 10:21:36;;;;;;;20.23;11.98;;;2.80;99.90;;;;;;5011165;28;20026;-66
2022/01/17 10:29:17;;;;;;;22.65;12.43;;;2.90;99.90;;;;;;5012239;28;20067;-66
2022/01/17 10:37:13;;;;;;;21.63;12.32;;;2.90;99.90;;;;;;5012128;28;20048;-66
2022/01/17 10:39:56;;;;;;;19.50;12.07;;;2.90;99.90;;;;;;5010054;28;20133;-65
2022/01/17 10:42:45;;;;;;;20.45;12.23;;;3.00;99.90;;;;;;5011543;28;20076;-67
2022/01/17 10:45:21;;;;;;;23.85;12.35;;;3.00;99.90;;;;;;5010569;28;20033;-65
2022/01/17 10:47:50;;;;;;;21.45;11.98;;;3.10;99.90;;;;;;5010063;28;20036;-65
2022/01/17 10:50:26;;;;;;;19.50;12.23;;;3.10;99.90;;;;;;5010987;28;20029;-65
2022/01/17 10:52:54;;;;;;;20.10;11.10;;;3.20;99.90;;;;;;5010406;28;20487;-66
2022/01/17 10:55:32;;;;;;;21.17;11.73;;;3.20;99.90;;;;;;5010809;28;20026;-66
2022/01/17 10:58:02;;;;;;;20.63;11.90;;;3.20;99.90;;;;;;5008912;28;20030;-66
2022/01/17 11:00:43;;;;;;;20.42;11.93;;;3.20;99.90;;;;;;5010480;28;20022;-66
2022/01/17 11:03:11;;;;;;;21.73;12.35;;;3.20;99.90;;;;;;5011421;28;20375;-66
2022/01/17 11:05:43;;;;;;;21.55;11.38;;;3.20;99.90;;;;;;5009757;28;20034;-65
2022/01/17 11:08:09;;;;;;;21.50;11.88;;;3.20;99.90;;;;;;5010162;28;20068;-65
2022/01/17 11:10:39;;;;;;;19.48;10.85;;;3.20;99.90;;;;;;5010303;28;20065;-66
2022/01/17 11:13:08;;;;;;;25.05;12.43;;;3.20;99.90;;;;;;5010675;28;20037;-66
2022/01/17 11:15:36;;;;;;;21.85;11.95;;;3.30;99.90;;;;;;5010366;28;20125;-67
2022/01/17 11:18:29;;;;;;;20.17;10.65;;;3.30;99.90;;;;;;5009844;28;20026;-67
2022/01/17 11:20:56;;;;;;;;;;;3.30;99.90;;;;;;5008965;28;20037;-65
2022/01/17 11:23:23;;;;;;;19.77;10.23;;;3.30;99.90;;;;;;5004158;28;19910;-66
2022/01/17 11:25:55;;;;;;;17.15;10.35;;;3.30;99.90;;;;;;5018466;28;20034;-66
2022/01/17 11:28:33;;;;;;;17.17;10.20;;;3.40;99.90;;;;;;5009245;28;20034;-65
2022/01/17 11:31:01;;;;;;;18.75;10.10;;;3.40;99.90;;;;;;5002501;28;20281;-66
2022/01/17 11:33:28;;;;;;;19.95;11.10;;;3.40;99.90;;;;;;5010681;28;20398;-67
2022/01/17 11:35:54;;;;;;;18.95;11.02;;;3.40;99.90;;;;;;5008090;28;20026;-67
2022/01/17 11:38:34;;;;;;;17.75;10.18;;;3.40;99.90;;;;;;5009532;28;20454;-65
2022/01/17 11:41:01;;;;;;;17.60;9.80;;;3.40;99.90;;;;;;4995618;28;20014;-66
2022/01/17 11:43:35;;;;;;;19.88;10.60;;;3.40;99.90;;;;;;5010180;28;20080;-65
2022/01/17 11:46:24;;;;;;;17.13;9.75;;;3.40;99.90;;;;;;5010036;28;20046;-65
2022/01/17 11:48:54;;;;;;;15.90;9.48;;;3.40;99.90;;;;;;5009337;28;20556;-64
2022/01/17 11:51:20;;;;;;;16.63;9.50;;;3.40;99.90;;;;;;5009473;28;20549;-65
2022/01/17 11:53:54;;;;;;;17.67;9.88;;;3.30;99.90;;;;;;5009543;28;20084;-64
2022/01/17 11:56:51;;;;;;;17.13;10.18;;;3.40;99.90;;;;;;5009865;28;20054;-65
2022/01/17 11:59:25;;;;;;;19.10;8.75;;;3.40;99.90;;;;;;5009365;28;20041;-64
2022/01/17 12:02:17;;;;;;;21.05;9.77;;;3.30;99.90;;;;;;5009706;28;20509;-64
2022/01/17 12:05:02;;;;;;;17.92;9.30;;;3.40;99.90;;;;;;5021820;28;20054;-63
2022/01/17 12:07:55;;;;;;;16.85;9.65;;;3.30;99.90;;;;;;5009011;28;20030;-66
2022/01/17 12:10:29;;;;;;;18.38;9.85;;;3.40;99.90;;;;;;5007471;28;20037;-64
2022/01/17 12:13:22;;;;;;;15.27;9.15;;;3.30;99.90;;;;;;5008533;28;20030;-64
2022/01/17 12:16:15;;;;;;;15.63;9.30;;;3.40;99.90;;;;;;5001288;28;20026;-64
2022/01/17 12:19:03;;;;;;;16.50;9.23;;;3.40;99.90;;;;;;5008200;28;20049;-64
2022/01/17 12:21:34;;;;;;;17.63;9.00;;;3.40;99.90;;;;;;5009047;28;20020;-64
2022/01/17 12:24:31;;;;;;;16.75;8.43;;;3.40;99.90;;;;;;5009056;28;20573;-64
2022/01/17 12:27:02;;;;;;;14.63;8.48;;;3.40;99.90;;;;;;4996743;28;20042;-64
2022/01/17 12:29:55;;;;;;;16.98;9.23;;;3.50;99.90;;;;;;5010480;28;20572;-64
2022/01/17 12:32:24;;;;;;;15.85;8.35;;;3.50;99.90;;;;;;5009342;28;20041;-63
2022/01/17 12:34:53;;;;;;;13.15;7.82;;;3.40;99.90;;;;;;5008157;28;20370;-65
2022/01/17 12:37:39;;;;;;;16.30;8.77;;;3.50;99.90;;;;;;5008450;28;20375;-66
2022/01/17 12:40:14;;;;;;;14.38;8.25;;;3.50;99.90;;;;;;5023062;28;20034;-65
2022/01/17 12:42:59;;;;;;;14.35;9.25;;;3.50;99.90;;;;;;5009325;28;20038;-64
2022/01/17 12:45:25;;;;;;;14.95;8.40;;;3.50;99.90;;;;;;5010538;28;20030;-65
2022/01/17 12:47:51;;;;;;;14.90;9.02;;;3.60;99.90;;;;;;5013193;28;20394;-66
2022/01/17 12:50:19;;;;;;;16.13;9.43;;;3.60;99.90;;;;;;5025413;28;20040;-65
2022/01/17 12:52:45;;;;;;;14.98;8.85;;;3.60;99.90;;;;;;5015468;28;20030;-66
2022/01/17 12:55:12;;;;;;;13.95;8.50;;;3.60;99.90;;;;;;5005087;28;20031;-65
2022/01/17 12:57:45;;;;;;;15.32;9.05;;;3.70;99.90;;;;;;5012836;28;20026;-65
2022/01/17 13:00:19;;;;;;;14.82;8.85;;;3.70;99.90;;;;;;5014679;28;20053;-66
2022/01/17 13:02:48;;;;;;;12.30;7.70;;;3.70;99.90;;;;;;5012883;28;20120;-65
2022/01/17 13:05:14;;;;;;;16.65;9.88;;;3.80;99.90;;;;;;5013372;28;20117;-66
2022/01/17 13:07:42;;;;;;;17.17;9.48;;;3.90;99.90;;;;;;5013032;28;20029;-65
2022/01/17 13:10:11;;;;;;;14.48;9.40;;;3.90;99.90;;;;;;5013125;28;20030;-66
2022/01/17 13:12:40;;;;;;;13.90;8.68;;;4.00;99.90;;;;;;5013560;28;20026;-65
2022/01/17 13:15:06;;;;;;;13.88;9.18;;;4.00;99.90;;;;;;5012782;28;20022;-67
2022/01/17 13:17:33;;;;;;;16.45;9.13;;;4.00;99.90;;;;;;5012495;28;20022;-66